Time;durP1;ratioP1;P1;durP2;ratioP2;P2;SDS_P1;SDS_P2;PMS_P1;PMS_P2;Temp;Humidity;BMP_temperature;BMP_pressure;BME280_temperature;BME280_humidity;BME280_pressure;Samples;Min_cycle;Max_cycle;Signal;HPM_P1;HPM_P2
2022/07/27 00:01:59;;;;;;;4.80;1.10;;;;;;;14.72;100.00;102044.50;5112563;28;20119;-70
2022/07/27 00:04:24;;;;;;;8.25;1.20;;;;;;;14.79;100.00;102035.78;5111542;28;20038;-69
2022/07/27 00:06:49;;;;;;;2.30;1.10;;;;;;;14.89;100.00;102042.13;5108812;28;20019;-68
2022/07/27 00:09:17;;;;;;;5.22;0.85;;;;;;;14.98;100.00;102038.78;5113019;28;20073;-70
2022/07/27 00:11:42;;;;;;;5.00;0.90;;;;;;;15.08;100.00;102037.16;5107547;28;20036;-69
2022/07/27 00:14:08;;;;;;;4.13;1.13;;;;;;;15.04;100.00;102036.22;5094947;28;20020;-69
2022/07/27 00:16:33;;;;;;;4.80;1.10;;;;;;;15.05;100.00;102047.72;5101519;28;20032;-69
2022/07/27 00:18:58;;;;;;;3.08;1.10;;;;;;;15.05;100.00;102038.00;5099612;28;20046;-69
2022/07/27 00:21:25;;;;;;;3.08;0.90;;;;;;;15.14;100.00;102039.94;5110044;28;20020;-69
2022/07/27 00:23:51;;;;;;;7.13;1.00;;;;;;;15.23;100.00;102033.88;5103999;28;20027;-69
2022/07/27 00:26:16;;;;;;;1.55;0.77;;;;;;;15.27;100.00;102033.94;5099087;28;20028;-69
2022/07/27 00:28:42;;;;;;;4.05;0.90;;;;;;;15.34;100.00;102034.94;5109155;28;20024;-68
2022/07/27 00:31:07;;;;;;;6.35;1.25;;;;;;;15.39;100.00;102037.69;5104261;28;20026;-68
2022/07/27 00:33:32;;;;;;;8.68;1.08;;;;;;;15.33;100.00;102033.19;5097782;28;20027;-68
2022/07/27 00:35:58;;;;;;;3.47;0.85;;;;;;;15.29;100.00;102039.28;5105600;28;20107;-68
2022/07/27 00:38:24;;;;;;;6.78;1.30;;;;;;;15.27;100.00;102038.38;5112559;28;20031;-69
2022/07/27 00:40:49;;;;;;;5.22;1.00;;;;;;;15.25;100.00;102040.13;5114059;28;20023;-69
2022/07/27 00:43:15;;;;;;;4.75;1.00;;;;;;;15.11;100.00;102042.50;5110449;28;20402;-69
2022/07/27 00:45:40;;;;;;;2.05;1.30;;;;;;;15.13;100.00;102036.38;5106388;28;20374;-70
2022/07/27 00:48:06;;;;;;;3.20;1.10;;;;;;;15.04;100.00;102036.22;5109348;28;20035;-70
2022/07/27 00:50:31;;;;;;;5.97;1.38;;;;;;;14.93;100.00;102037.78;5116761;28;20028;-69
2022/07/27 00:52:57;;;;;;;3.47;0.95;;;;;;;14.88;100.00;102032.41;5108615;28;20463;-69
2022/07/27 00:55:23;;;;;;;4.68;1.02;;;;;;;14.76;100.00;102030.44;5111499;28;20098;-68
2022/07/27 00:57:49;;;;;;;3.10;0.82;;;;;;;14.65;100.00;102027.59;5115683;28;20051;-69
2022/07/27 01:00:15;;;;;;;3.10;0.80;;;;;;;14.58;100.00;102019.44;5110202;28;20023;-69
2022/07/27 01:02:40;;;;;;;2.75;0.75;;;;;;;14.52;100.00;102024.66;5102512;28;20019;-70
2022/07/27 01:05:05;;;;;;;5.80;1.30;;;;;;;14.44;100.00;102029.78;5104007;28;20081;-68
2022/07/27 01:07:31;;;;;;;5.38;1.20;;;;;;;14.37;100.00;102031.41;5110001;28;20115;-70
2022/07/27 01:09:58;;;;;;;2.65;0.80;;;;;;;14.34;100.00;102031.38;5089117;28;20030;-70
2022/07/27 01:12:28;;;;;;;2.80;1.33;;;;;;;14.28;100.00;102031.22;5115334;28;20115;-68
2022/07/27 01:14:56;;;;;;;2.90;0.93;;;;;;;14.26;100.00;102027.66;5114373;28;20081;-69
2022/07/27 01:17:22;;;;;;;7.72;1.40;;;;;;;14.18;100.00;102023.97;5104322;28;20031;-69
2022/07/27 01:19:48;;;;;;;4.13;1.20;;;;;;;14.08;100.00;102029.06;5088951;28;20043;-69
2022/07/27 01:22:13;;;;;;;6.15;1.30;;;;;;;14.02;100.00;102028.94;5101601;28;20024;-70
2022/07/27 01:24:39;;;;;;;1.98;0.90;;;;;;;13.99;100.00;102023.59;5113914;28;20087;-69
2022/07/27 01:27:05;;;;;;;4.07;0.85;;;;;;;13.92;100.00;102022.56;5114597;28;20027;-68
2022/07/27 01:29:31;;;;;;;8.23;1.00;;;;;;;13.95;100.00;102021.72;5111915;28;20027;-69
2022/07/27 01:31:57;;;;;;;4.18;0.90;;;;;;;13.88;100.00;102026.00;5104091;28;20383;-68
2022/07/27 01:34:22;;;;;;;2.92;0.90;;;;;;;13.83;100.00;102033.81;5097376;28;20026;-69
2022/07/27 01:36:48;;;;;;;6.28;1.40;;;;;;;13.82;100.00;102025.84;5109149;28;20462;-68
2022/07/27 01:39:15;;;;;;;5.43;1.02;;;;;;;13.85;100.00;102027.66;5102889;28;20023;-69
2022/07/27 01:41:41;;;;;;;3.08;1.00;;;;;;;13.80;100.00;102023.16;5113202;28;20031;-69
2022/07/27 01:44:07;;;;;;;1.55;0.88;;;;;;;13.80;100.00;102031.09;5112094;28;20027;-69
2022/07/27 01:46:32;;;;;;;4.97;0.93;;;;;;;13.79;100.00;102021.38;5109720;28;20360;-69
2022/07/27 01:48:57;;;;;;;4.72;1.10;;;;;;;13.77;100.00;102017.81;5106645;28;20028;-69
2022/07/27 01:51:23;;;;;;;3.22;1.10;;;;;;;13.79;100.00;102024.03;5112322;28;20039;-68
2022/07/27 01:53:48;;;;;;;5.35;0.90;;;;;;;13.79;100.00;102015.19;5113146;28;20059;-69
2022/07/27 01:56:14;;;;;;;5.18;1.50;;;;;;;13.82;100.00;102016.19;5109804;28;20032;-67
2022/07/27 01:58:41;;;;;;;2.78;1.00;;;;;;;13.82;100.00;102013.53;5102089;28;20054;-69
2022/07/27 02:01:06;;;;;;;6.97;1.05;;;;;;;13.81;100.00;102014.38;5113378;28;20118;-69
2022/07/27 02:03:32;;;;;;;5.13;1.10;;;;;;;13.85;100.00;102014.44;5096290;28;20447;-69
2022/07/27 02:05:58;;;;;;;13.60;1.73;;;;;;;13.86;100.00;102009.19;5096282;28;20043;-68
2022/07/27 02:08:23;;;;;;;4.35;1.40;;;;;;;13.87;100.00;102015.38;5094809;28;20387;-69
2022/07/27 02:13:33;;;;;;;7.78;1.20;;;;;;;13.83;100.00;102014.41;5109433;28;20093;-69
2022/07/27 02:15:59;;;;;;;6.88;1.05;;;;;;;13.84;100.00;102005.63;5081207;28;20056;-69
2022/07/27 02:18:24;;;;;;;7.40;1.10;;;;;;;13.79;100.00;102016.09;5100919;28;20023;-70
2022/07/27 02:20:50;;;;;;;3.33;1.02;;;;;;;13.77;100.00;102011.66;5101576;28;20398;-69
2022/07/27 02:23:15;;;;;;;4.95;1.02;;;;;;;13.85;100.00;102014.44;5083062;28;20027;-70
2022/07/27 02:25:41;;;;;;;3.45;0.80;;;;;;;13.98;100.00;102016.50;5103522;28;20111;-70
2022/07/27 02:28:06;;;;;;;6.70;1.48;;;;;;;14.00;100.00;102020.97;5104672;28;20030;-70
2022/07/27 02:30:31;;;;;;;1.30;0.90;;;;;;;13.99;100.00;102007.69;5103956;28;20027;-69
2022/07/27 02:32:57;;;;;;;8.32;1.17;;;;;;;13.98;100.00;102012.13;5109938;28;20374;-70
2022/07/27 02:35:22;;;;;;;4.30;1.00;;;;;;;13.99;100.00;102007.69;5111077;28;20034;-69
2022/07/27 02:37:48;;;;;;;2.83;0.82;;;;;;;14.05;100.00;101999.88;5113849;28;20239;-68
2022/07/27 02:40:16;;;;;;;2.40;0.95;;;;;;;14.13;100.00;101998.31;5111948;28;20023;-68
2022/07/27 02:42:41;;;;;;;4.97;1.10;;;;;;;14.12;100.00;102000.91;5113634;28;20094;-69
2022/07/27 02:45:07;;;;;;;2.50;0.93;;;;;;;14.10;100.00;102000.88;5112122;28;20028;-69
2022/07/27 02:47:33;;;;;;;4.53;1.10;;;;;;;14.19;100.00;101999.25;5113479;28;20386;-69
2022/07/27 02:50:00;;;;;;;6.38;1.67;;;;;;;14.22;100.00;102000.22;5098187;28;20027;-69
2022/07/27 02:52:25;;;;;;;7.15;1.00;;;;;;;14.23;100.00;101996.72;5111718;28;20073;-70
2022/07/27 02:54:51;;;;;;;3.97;1.08;;;;;;;14.29;100.00;102001.25;5107081;28;20036;-69
2022/07/27 02:57:16;;;;;;;3.65;1.10;;;;;;;14.29;100.00;101998.59;5114329;28;20043;-70
2022/07/27 02:59:42;;;;;;;3.17;0.93;;;;;;;14.34;100.00;102004.88;5110399;28;20023;-69
2022/07/27 03:02:07;;;;;;;5.00;1.10;;;;;;;14.43;100.00;102005.06;5092246;28;20056;-68
2022/07/27 03:04:32;;;;;;;6.32;1.33;;;;;;;14.50;100.00;102003.41;5091440;28;20024;-69
2022/07/27 03:06:58;;;;;;;4.63;1.23;;;;;;;14.55;100.00;102014.09;5109115;28;20020;-69
2022/07/27 03:09:23;;;;;;;2.67;1.10;;;;;;;14.61;100.00;102004.53;5102151;28;20031;-69
2022/07/27 03:11:48;;;;;;;8.38;1.35;;;;;;;14.62;100.00;102000.09;5107474;28;20382;-68
2022/07/27 03:14:14;;;;;;;3.65;1.02;;;;;;;14.58;100.00;102008.84;5106483;28;20024;-69
2022/07/27 03:16:39;;;;;;;2.65;0.73;;;;;;;14.60;100.00;102001.84;5096477;28;20039;-69
2022/07/27 03:19:05;;;;;;;4.18;1.33;;;;;;;14.62;100.00;102010.69;5110687;28;20020;-69
2022/07/27 03:21:30;;;;;;;3.08;1.08;;;;;;;14.63;100.00;102007.22;5107208;28;20024;-69
2022/07/27 03:23:55;;;;;;;5.43;1.17;;;;;;;14.71;100.00;102004.72;5100291;28;20387;-69
2022/07/27 03:26:21;;;;;;;3.45;1.02;;;;;;;14.73;100.00;102001.25;5108172;28;20398;-70
2022/07/27 03:28:46;;;;;;;1.83;1.02;;;;;;;14.69;100.00;101998.50;5100876;28;20102;-69
2022/07/27 03:31:12;;;;;;;4.80;1.35;;;;;;;14.66;100.00;101997.59;5102381;28;20023;-69
2022/07/27 03:33:37;;;;;;;1.08;0.93;;;;;;;14.66;100.00;101996.69;5110026;28;20031;-68
2022/07/27 03:36:02;;;;;;;7.65;1.20;;;;;;;14.70;100.00;101995.88;5102770;28;20501;-68
2022/07/27 03:38:28;;;;;;;3.88;1.30;;;;;;;14.69;100.00;101996.75;5099723;28;20027;-69
2022/07/27 03:40:54;;;;;;;4.85;1.05;;;;;;;14.68;100.00;101997.59;5093722;28;20035;-70
2022/07/27 03:43:19;;;;;;;4.47;1.00;;;;;;;14.65;100.00;102000.22;5088137;28;20027;-69
2022/07/27 03:45:45;;;;;;;3.35;1.30;;;;;;;14.73;100.00;102003.91;5100575;28;20031;-69
2022/07/27 03:48:10;;;;;;;3.00;1.00;;;;;;;14.70;100.00;102000.28;5090668;28;20024;-70
2022/07/27 03:50:35;;;;;;;5.40;1.00;;;;;;;14.76;100.00;102011.88;5102409;28;20028;-69
2022/07/27 03:53:01;;;;;;;3.88;1.33;;;;;;;14.76;100.00;102014.53;5086278;28;20387;-68
2022/07/27 03:55:26;;;;;;;6.35;1.30;;;;;;;14.82;100.00;102009.31;5097668;28;20059;-70
2022/07/27 03:57:52;;;;;;;4.63;1.20;;;;;;;14.83;100.00;102013.78;5102657;28;20051;-69
2022/07/27 04:00:19;;;;;;;2.58;1.00;;;;;;;14.81;100.00;102017.25;5109235;28;20071;-68
2022/07/27 04:02:45;;;;;;;2.55;1.10;;;;;;;14.83;100.00;102011.13;5101621;28;20553;-69
2022/07/27 04:05:11;;;;;;;4.13;1.17;;;;;;;14.79;100.00;102011.06;5105584;28;20047;-69
2022/07/27 04:07:36;;;;;;;3.70;1.30;;;;;;;14.75;100.00;102012.75;5112727;28;20081;-69
2022/07/27 04:10:03;;;;;;;2.88;1.20;;;;;;;14.76;100.00;102011.88;5111584;28;20052;-69
2022/07/27 04:12:28;;;;;;;6.20;1.50;;;;;;;14.82;100.00;102009.31;5110991;28;20027;-68
2022/07/27 04:14:53;;;;;;;7.25;1.50;;;;;;;14.81;100.00;102010.22;5108761;28;20034;-70
2022/07/27 04:17:18;;;;;;;3.72;1.08;;;;;;;14.85;100.00;102019.09;5093151;28;20103;-70
2022/07/27 04:19:44;;;;;;;3.90;1.00;;;;;;;14.79;100.00;102011.94;5107782;28;20441;-68
2022/07/27 04:22:09;;;;;;;3.20;1.15;;;;;;;14.80;100.00;102018.16;5109669;28;20019;-69
2022/07/27 04:24:35;;;;;;;4.70;1.30;;;;;;;14.87;100.00;102022.69;5084125;28;20027;-69
2022/07/27 04:27:00;;;;;;;5.28;1.38;;;;;;;14.87;100.00;102022.69;5093173;28;20052;-69
2022/07/27 04:29:26;;;;;;;3.53;1.15;;;;;;;14.90;100.00;102020.06;5104481;28;20058;-68
2022/07/27 04:31:51;;;;;;;5.30;1.13;;;;;;;14.94;100.00;102026.34;5100320;28;20471;-68
2022/07/27 04:34:17;;;;;;;3.95;1.13;;;;;;;14.95;100.00;102025.47;5106979;28;20031;-68
2022/07/27 04:36:43;;;;;;;4.43;1.67;;;;;;;14.95;100.00;102031.66;5109062;28;20016;-69
2022/07/27 04:39:09;;;;;;;3.00;1.17;;;;;;;14.99;100.00;102022.00;5112263;28;20054;-69
2022/07/27 04:41:34;;;;;;;4.32;1.40;;;;;;;14.88;100.00;102024.47;5104750;28;20055;-69
2022/07/27 04:44:00;;;;;;;5.43;1.40;;;;;;;14.86;100.00;102030.59;5102241;28;20406;-69
2022/07/27 04:46:26;;;;;;;8.25;1.42;;;;;;;14.87;100.00;102029.72;5116554;28;20028;-69
2022/07/27 04:48:51;;;;;;;4.05;1.80;;;;;;;14.94;100.00;102031.63;5110504;28;20023;-69
2022/07/27 04:51:17;;;;;;;6.65;1.73;;;;;;;14.91;100.00;102028.94;5106157;28;20030;-69
2022/07/27 04:53:42;;;;;;;5.13;1.70;;;;;;;14.94;100.00;102032.50;5110908;28;20031;-69
2022/07/27 04:56:08;;;;;;;7.95;1.85;;;;;;;14.96;100.00;102037.84;5112237;28;20486;-70
2022/07/27 04:58:34;;;;;;;4.30;1.88;;;;;;;15.02;100.00;102043.25;5111757;28;20059;-70
2022/07/27 05:01:00;;;;;;;4.53;1.83;;;;;;;15.03;100.00;102041.50;5112672;28;20483;-69
2022/07/27 05:03:25;;;;;;;8.77;1.60;;;;;;;15.10;100.00;102040.75;5115918;28;20034;-69
2022/07/27 05:05:51;;;;;;;5.10;1.95;;;;;;;15.11;100.00;102035.47;5103952;28;20034;-69
2022/07/27 05:08:17;;;;;;;7.55;1.60;;;;;;;15.16;100.00;102032.88;5114273;28;20764;-68
2022/07/27 05:10:43;;;;;;;7.43;1.67;;;;;;;15.12;100.00;102037.22;5103413;28;20028;-69
2022/07/27 05:13:08;;;;;;;3.78;1.42;;;;;;;15.20;100.00;102040.03;5106016;28;20028;-69
2022/07/27 05:15:33;;;;;;;5.95;1.20;;;;;;;15.26;100.00;102044.53;5115322;28;20023;-69
2022/07/27 05:17:59;;;;;;;6.55;1.65;;;;;;;15.28;100.00;102045.47;5110933;28;20016;-69
2022/07/27 05:20:24;;;;;;;4.75;1.30;;;;;;;15.26;100.00;102045.44;5106387;28;20086;-69
2022/07/27 05:22:50;;;;;;;6.10;1.17;;;;;;;15.25;100.00;102045.41;5104684;28;20114;-70
2022/07/27 05:25:16;;;;;;;5.32;1.20;;;;;;;15.17;100.00;102043.50;5111047;28;20036;-69
2022/07/27 05:27:41;;;;;;;3.95;1.27;;;;;;;15.20;100.00;102057.69;5110606;28;20039;-70
2022/07/27 05:30:08;;;;;;;6.70;1.08;;;;;;;15.20;100.00;102053.28;5100934;28;20020;-69
2022/07/27 05:32:33;;;;;;;3.80;1.10;;;;;;;15.20;100.00;102057.69;5112740;28;20028;-69
2022/07/27 05:34:59;;;;;;;4.45;1.23;;;;;;;15.27;100.00;102048.97;5103343;28;20030;-68
2022/07/27 05:37:24;;;;;;;4.63;1.00;;;;;;;15.33;100.00;102059.69;5109766;28;20028;-69
2022/07/27 05:39:49;;;;;;;6.95;1.52;;;;;;;15.34;100.00;102056.16;5105936;28;20060;-68
2022/07/27 05:42:15;;;;;;;4.97;1.20;;;;;;;15.31;100.00;102064.06;5113757;28;20030;-69
2022/07/27 05:44:40;;;;;;;6.63;1.25;;;;;;;15.34;100.00;102058.81;5112469;28;20035;-68
2022/07/27 05:47:06;;;;;;;6.75;1.50;;;;;;;15.41;100.00;102062.44;5113544;28;20144;-69
2022/07/27 05:49:31;;;;;;;2.33;1.23;;;;;;;15.44;100.00;102063.41;5114439;28;20386;-69
2022/07/27 05:51:56;;;;;;;2.47;1.00;;;;;;;15.45;100.00;102075.81;5109508;28;20020;-67
2022/07/27 05:54:22;;;;;;;3.90;1.13;;;;;;;15.46;100.00;102072.28;5107827;28;20031;-68
2022/07/27 05:56:47;;;;;;;3.17;1.35;;;;;;;15.58;100.00;102074.22;5114397;28;20115;-68
2022/07/27 05:59:13;;;;;;;6.03;1.40;;;;;;;15.55;100.00;102060.91;5112308;28;20027;-67
2022/07/27 06:01:38;;;;;;;5.95;1.30;;;;;;;15.55;100.00;102068.88;5102959;28;20027;-69
2022/07/27 06:04:04;;;;;;;3.95;1.38;;;;;;;15.58;100.00;102062.72;5105669;28;20032;-68
2022/07/27 06:09:14;;;;;;;7.50;1.38;;;;;;;15.59;100.00;102081.31;5110361;28;20049;-69
2022/07/27 06:11:39;;;;;;;4.38;1.08;;;;;;;15.62;100.00;102080.47;5112607;28;20106;-69
2022/07/27 06:14:04;;;;;;;3.03;1.13;;;;;;;15.66;100.00;102075.22;5104439;28;20027;-68
2022/07/27 06:16:30;;;;;;;4.70;1.23;;;;;;;15.70;100.00;102076.19;5102560;28;20028;-71
2022/07/27 06:18:55;;;;;;;4.90;1.38;;;;;;;15.78;100.00;102082.50;5109331;28;20038;-70
2022/07/27 06:21:24;;;;;;;3.33;1.10;;;;;;;15.71;100.00;102085.03;5107566;28;20054;-70
2022/07/27 06:23:50;;;;;;;6.93;1.27;;;;;;;15.73;100.00;102080.66;5114515;28;20027;-69
2022/07/27 06:26:15;;;;;;;4.38;1.08;;;;;;;15.79;100.00;102086.03;5098145;28;20035;-70
2022/07/27 06:28:40;;;;;;;4.03;0.88;;;;;;;15.80;100.00;102086.13;5109495;28;20027;-70
2022/07/27 06:31:06;;;;;;;4.32;1.02;;;;;;;15.79;100.00;102086.94;5106624;28;20428;-69
2022/07/27 06:33:31;;;;;;;4.00;1.20;;;;;;;15.78;100.00;102089.56;5103567;28;20542;-70
2022/07/27 06:35:59;;;;;;;5.03;1.10;;;;;;;15.83;100.00;102088.81;5083470;28;20026;-69
2022/07/27 06:38:25;;;;;;;4.22;0.80;;;;;;;15.83;100.00;102088.81;5101051;28;20024;-70
2022/07/27 06:40:53;;;;;;;3.33;1.33;;;;;;;15.94;100.00;102090.69;5111735;28;20471;-70
2022/07/27 06:43:25;;;;;;;4.75;0.88;;;;;;;15.92;100.00;102081.84;5109704;28;20081;-72
2022/07/27 06:45:53;;;;;;;7.80;1.35;;;;;;;15.94;100.00;102099.56;5106558;28;20032;-71
2022/07/27 06:48:20;;;;;;;4.35;1.30;;;;;;;15.95;100.00;102103.13;5092927;28;20027;-70
2022/07/27 06:50:45;;;;;;;3.05;1.08;;;;;;;15.99;100.00;102094.31;5110958;28;20024;-70
2022/07/27 06:53:11;;;;;;;4.47;1.20;;;;;;;15.99;100.00;102105.84;5112227;28;20039;-70
2022/07/27 06:55:36;;;;;;;3.40;1.10;;;;;;;16.09;100.00;102090.94;5106918;28;20028;-70
2022/07/27 06:58:01;;;;;;;4.68;0.77;;;;;;;16.17;100.00;102089.28;5112505;28;20040;-70
2022/07/27 07:00:27;;;;;;;4.13;0.93;;;;;;;16.21;100.00;102091.97;5111586;28;20016;-70
2022/07/27 07:02:58;;;;;;;5.85;1.40;;;;;;;16.22;100.00;102091.09;5103535;28;20456;-70
2022/07/27 07:05:24;;;;;;;2.60;0.90;;;;;;;16.28;100.00;102096.50;5112191;28;20092;-70
2022/07/27 07:07:50;;;;;;;8.00;1.38;;;;;;;16.37;100.00;102099.25;5093281;28;20119;-70
2022/07/27 07:10:15;;;;;;;3.35;0.90;;;;;;;16.42;100.00;102099.31;5088157;28;20038;-70
2022/07/27 07:12:41;;;;;;;5.40;1.23;;;;;;;16.51;100.00;102100.31;5100416;28;20028;-71
2022/07/27 07:15:07;;;;;;;4.20;1.02;;;;;;;16.56;100.00;102096.84;5107704;28;20114;-70
2022/07/27 07:17:33;;;;;;;7.68;1.15;;;;;;;16.61;100.00;102096.00;5106581;28;20106;-70
2022/07/27 07:19:58;;;;;;;4.63;1.13;;;;;;;16.62;100.00;102099.56;5085861;28;20036;-71
2022/07/27 07:22:24;;;;;;;2.83;1.40;;;;;;;16.62;100.00;102107.56;5112497;28;20031;-71
2022/07/27 07:24:50;;;;;;;1.90;0.93;;;;;;;16.62;100.00;102110.22;5093557;28;20047;-71
2022/07/27 07:27:18;;;;;;;4.07;0.93;;;;;;;16.54;100.00;102109.22;5103550;28;20031;-70
2022/07/27 07:29:43;;;;;;;5.32;1.10;;;;;;;16.55;100.00;102109.25;5102131;28;20034;-71
2022/07/27 07:32:09;;;;;;;5.80;1.00;;;;;;;16.56;100.00;102107.47;5098632;28;20125;-71
2022/07/27 07:34:34;;;;;;;7.47;1.33;;;;;;;16.55;100.00;102110.97;5095956;28;20024;-71
2022/07/27 07:36:59;;;;;;;3.72;1.23;;;;;;;16.70;100.00;102113.84;5097167;28;20483;-72
2022/07/27 07:39:25;;;;;;;2.40;1.10;;;;;;;16.92;100.00;102116.78;5102637;28;20031;-70
2022/07/27 07:41:51;;;;;;;6.30;1.42;;;;;;;17.03;100.00;102116.00;5111235;28;20432;-71
2022/07/27 07:44:17;;;;;;;4.63;1.10;;;;;;;17.06;100.00;102114.25;5092880;28;20027;-70
2022/07/27 07:46:42;;;;;;;6.95;1.15;;;;;;;17.12;100.00;102119.63;5108154;28;20371;-70
2022/07/27 07:49:09;;;;;;;5.20;1.00;;;;;;;17.12;100.00;102119.63;5100066;28;20375;-70
2022/07/27 07:51:34;;;;;;;5.57;1.27;;;;;;;17.05;100.00;102128.41;5104703;28;20066;-70
2022/07/27 07:54:00;;;;;;;5.28;1.20;;;;;;;17.02;100.00;102123.97;5111676;28;20051;-71
2022/07/27 07:56:25;;;;;;;6.00;0.90;;;;;;;17.02;100.00;102126.63;5102517;28;20024;-72
2022/07/27 07:58:50;;;;;;;11.80;1.20;;;;;;;17.05;100.00;102129.34;5113630;28;20092;-71
2022/07/27 08:01:16;;;;;;;4.90;1.27;;;;;;;16.95;100.00;102123.00;5101371;28;20028;-72
2022/07/27 08:03:41;;;;;;;4.68;1.00;;;;;;;17.02;100.00;102114.22;5093827;28;20027;-71
2022/07/27 08:06:07;;;;;;;6.03;0.90;;;;;;;17.07;100.00;102116.91;5093699;28;20031;-71
2022/07/27 08:08:32;;;;;;;3.22;1.02;;;;;;;17.11;100.00;102116.06;5093501;28;20107;-71
2022/07/27 08:10:57;;;;;;;6.93;1.25;;;;;;;17.13;100.00;102111.69;5112240;28;20027;-72
2022/07/27 08:13:23;;;;;;;3.47;0.80;;;;;;;17.14;100.00;102109.91;5095387;28;20464;-71
2022/07/27 08:15:50;;;;;;;8.57;1.27;;;;;;;17.13;100.00;102105.44;5095525;28;20102;-70
2022/07/27 08:18:15;;;;;;;3.72;1.05;;;;;;;17.10;100.00;102122.25;5106951;28;20080;-71
2022/07/27 08:20:40;;;;;;;4.05;0.95;;;;;;;17.08;100.00;102124.03;5100473;28;20650;-71
2022/07/27 08:23:06;;;;;;;4.45;0.98;;;;;;;17.07;100.00;102121.38;5102163;28;20028;-71
2022/07/27 08:25:31;;;;;;;4.82;0.90;;;;;;;17.07;100.00;102121.38;5098814;28;20430;-71
2022/07/27 08:27:57;;;;;;;4.97;1.17;;;;;;;17.13;100.00;102127.63;5105340;28;20114;-71
2022/07/27 08:30:23;;;;;;;4.07;0.95;;;;;;;17.24;100.00;102124.16;5115651;28;20031;-71
2022/07/27 08:32:54;;;;;;;2.03;0.95;;;;;;;17.31;100.00;102128.69;5107154;27;20052;-70
2022/07/27 08:35:20;;;;;;;3.55;0.80;;;;;;;17.43;100.00;102131.47;5113643;27;20031;-71
2022/07/27 08:37:46;;;;;;;3.72;1.00;;;;;;;17.53;100.00;102132.41;5106736;27;20455;-71
2022/07/27 08:40:13;;;;;;;4.65;0.98;;;;;;;17.67;100.00;102135.19;5082340;28;20035;-71
2022/07/27 08:42:41;;;;;;;6.97;1.08;;;;;;;17.92;100.00;102146.03;5109164;28;20024;-71
2022/07/27 08:45:08;;;;;;;4.22;1.05;;;;;;;18.22;100.00;102139.13;5102137;28;20028;-71
2022/07/27 08:47:34;;;;;;;5.32;1.10;;;;;;;18.34;100.00;102140.09;5101549;28;20034;-71
2022/07/27 08:50:00;;;;;;;4.40;0.77;;;;;;;18.37;100.00;102133.91;5101955;27;20024;-71
2022/07/27 08:52:25;;;;;;;7.25;1.10;;;;;;;18.12;100.00;102139.09;5101281;28;20054;-71
2022/07/27 08:54:51;;;;;;;4.25;0.88;;;;;;;17.92;100.00;102146.03;5109841;27;20490;-72
2022/07/27 08:57:16;;;;;;;5.88;0.95;;;;;;;17.91;100.00;102138.94;5100357;28;20056;-70
2022/07/27 08:59:41;;;;;;;2.03;0.88;;;;;;;17.85;100.00;102143.31;5109705;27;20019;-71
2022/07/27 09:02:12;;;;;;;3.78;1.10;;;;;;;17.79;100.00;102140.59;5100939;27;20096;-71
2022/07/27 09:04:41;;;;;;;3.92;0.75;;;;;;;17.74;100.00;102144.13;5105868;28;20030;-71
2022/07/27 09:07:06;;;;;;;3.05;1.05;;;;;;;17.78;100.00;102140.59;5101429;28;20036;-71
2022/07/27 09:09:44;;;;;;;2.00;0.93;;;;;;;17.86;100.00;102139.78;5106491;28;20085;-70
2022/07/27 09:12:10;;;;;;;3.72;0.93;;;;;;;18.22;100.00;102136.47;5106390;28;20028;-70
2022/07/27 09:14:39;;;;;;;3.08;1.00;;;;;;;18.42;100.00;102131.25;5104018;28;20032;-70
2022/07/27 09:17:24;;;;;;;4.35;0.70;;;;;;;18.74;94.17;102123.38;5103489;28;20089;-69
2022/07/27 09:19:55;;;;;;;1.50;0.70;;;;;;;19.07;95.90;102129.69;5099295;28;20054;-69
2022/07/27 09:22:45;;;;;;;1.02;0.60;;;;;;;19.19;100.00;102132.41;5100354;28;20395;-69
2022/07/27 09:25:14;;;;;;;3.20;1.25;;;;;;;19.26;99.37;102127.06;5099942;28;20048;-69
2022/07/27 09:27:41;;;;;;;5.25;1.00;;;;;;;19.53;100.00;102135.09;5101525;28;20383;-70
2022/07/27 09:30:10;;;;;;;5.47;0.93;;;;;;;19.85;100.00;102126.19;5098381;28;20099;-71
2022/07/27 09:32:36;;;;;;;2.70;0.73;;;;;;;20.01;95.88;102129.72;5085022;28;20337;-71
2022/07/27 09:35:15;;;;;;;3.30;0.70;;;;;;;20.07;96.36;102131.50;5106014;28;20035;-71
2022/07/27 09:37:40;;;;;;;2.53;0.82;;;;;;;20.05;98.13;102136.84;5098594;28;20035;-71
2022/07/27 09:40:17;;;;;;;3.95;1.08;;;;;;;19.95;92.92;102128.84;5107935;28;20434;-71
2022/07/27 09:42:43;;;;;;;5.57;0.90;;;;;;;19.70;97.42;102135.06;5105475;28;20023;-72
2022/07/27 09:45:34;;;;;;;3.53;0.90;;;;;;;19.55;100.00;102138.66;5091628;28;20024;-72
2022/07/27 09:48:19;;;;;;;5.78;0.80;;;;;;;19.18;96.10;102130.63;5099620;28;20077;-71
2022/07/27 09:51:06;;;;;;;1.63;0.85;;;;;;;19.15;100.00;102143.06;5108911;28;20031;-71
2022/07/27 09:53:33;;;;;;;6.43;0.73;;;;;;;19.00;100.00;102139.50;5101852;28;20025;-72
2022/07/27 09:56:12;;;;;;;3.38;1.00;;;;;;;19.02;100.00;102135.03;5107287;28;20034;-71
2022/07/27 09:58:52;;;;;;;2.22;0.70;;;;;;;18.87;100.00;102134.97;5100846;28;20112;-72
2022/07/27 10:01:21;;;;;;;2.38;0.75;;;;;;;18.98;100.00;102137.72;5111642;28;20379;-72
2022/07/27 10:03:49;;;;;;;10.27;1.10;;;;;;;19.00;100.00;102138.59;5095724;28;20380;-72
2022/07/27 10:06:15;;;;;;;3.25;0.70;;;;;;;19.05;100.00;102134.16;5103840;28;20027;-70
2022/07/27 10:08:43;;;;;;;2.65;0.73;;;;;;;19.15;99.03;102143.06;5103709;28;20020;-72
2022/07/27 10:11:10;;;;;;;2.90;1.00;;;;;;;18.91;97.58;102133.22;5086649;28;20539;-72
2022/07/27 10:13:35;;;;;;;3.60;1.10;;;;;;;19.23;100.00;102141.28;5087778;28;20486;-73
2022/07/27 10:16:03;;;;;;;3.15;0.70;;;;;;;19.63;95.88;102127.06;5105250;28;20015;-72
2022/07/27 10:18:41;;;;;;;2.22;0.70;;;;;;;19.85;97.45;102128.88;5108836;28;20032;-72
2022/07/27 10:21:09;;;;;;;1.92;0.80;;;;;;;19.90;95.66;102127.97;5106335;28;20032;-73
2022/07/27 10:23:37;;;;;;;6.05;0.90;;;;;;;19.77;93.92;102124.41;5105375;28;20103;-71
2022/07/27 10:26:25;;;;;;;4.47;1.08;;;;;;;19.49;98.38;102125.31;5099045;28;20063;-72
2022/07/27 10:28:55;;;;;;;4.68;0.80;;;;;;;19.41;96.37;102132.44;5083941;28;20026;-71
2022/07/27 10:31:27;;;;;;;1.95;0.80;;;;;;;19.29;96.25;102133.31;5115040;28;20032;-73
2022/07/27 10:33:55;;;;;;;7.93;1.00;;;;;;;19.44;100.00;102132.44;5101380;28;20027;-73
2022/07/27 10:36:29;;;;;;;3.10;0.65;;;;;;;19.54;98.20;102127.97;5110277;28;20081;-73
2022/07/27 10:39:00;;;;;;;4.00;0.88;;;;;;;19.43;95.20;102125.31;5099129;28;20027;-72
2022/07/27 10:41:30;;;;;;;1.70;0.65;;;;;;;19.36;96.09;102123.53;5098379;28;20097;-72
2022/07/27 10:44:15;;;;;;;1.90;0.73;;;;;;;19.64;98.87;102128.84;5096553;28;20024;-73
2022/07/27 10:46:47;;;;;;;3.90;0.70;;;;;;;19.85;95.22;102126.19;5100015;28;20103;-72
2022/07/27 10:49:23;;;;;;;2.65;1.00;;;;;;;20.19;99.99;102117.22;5111712;28;20047;-71
2022/07/27 10:51:52;;;;;;;3.30;0.82;;;;;;;20.74;89.17;102117.91;5091265;27;20098;-73
2022/07/27 10:54:22;;;;;;;3.47;0.68;;;;;;;21.22;86.26;102115.81;5089095;28;20118;-72
2022/07/27 10:56:49;;;;;;;2.33;0.70;;;;;;;21.59;80.48;102112.84;5111398;28;20062;-72
2022/07/27 10:59:51;;;;;;;3.97;0.82;;;;;;;21.98;76.01;102115.16;5113102;28;20098;-72
2022/07/27 11:02:36;;;;;;;2.00;0.90;;;;;;;22.11;73.76;102105.19;5009104;28;20394;-72
2022/07/27 11:05:03;;;;;;;1.58;0.70;;;;;;;22.05;72.60;102119.56;5103362;28;20083;-73
2022/07/27 11:07:28;;;;;;;2.03;0.75;;;;;;;21.88;71.20;102123.31;5096993;28;20439;-72
2022/07/27 11:09:54;;;;;;;5.53;1.00;;;;;;;21.69;70.67;102119.91;5102984;28;20030;-72
2022/07/27 11:12:20;;;;;;;1.85;0.60;;;;;;;21.40;71.37;102125.47;5098577;28;20032;-72
2022/07/27 11:14:54;;;;;;;3.50;0.70;;;;;;;21.32;71.84;102132.69;5101911;28;20352;-72
2022/07/27 11:17:24;;;;;;;4.32;0.85;;;;;;;21.35;72.26;102125.53;5099900;28;20031;-71
2022/07/27 11:19:57;;;;;;;1.30;0.50;;;;;;;21.08;69.01;102126.63;5077571;28;20031;-72
2022/07/27 11:22:37;;;;;;;2.03;0.80;;;;;;;21.12;71.88;102117.69;5099428;28;20031;-72
2022/07/27 11:25:04;;;;;;;2.95;0.50;;;;;;;21.36;71.55;102121.06;5099954;28;20035;-72